createdAt,value
2019-05-05T00:02:24.854Z,4.00
2019-05-05T00:05:19.044Z,3.90
2019-05-05T00:07:48.316Z,3.90
2019-05-05T00:10:25.953Z,3.90
2019-05-05T00:13:24.773Z,3.90
2019-05-05T00:16:15.347Z,3.80
2019-05-05T00:18:44.827Z,3.80
2019-05-05T00:21:15.104Z,3.80
2019-05-05T00:23:45.108Z,3.80
2019-05-05T00:26:15.043Z,3.80
2019-05-05T00:28:44.852Z,3.80
2019-05-05T00:31:14.994Z,3.70
2019-05-05T00:33:44.972Z,3.70
2019-05-05T00:36:14.641Z,3.70
2019-05-05T00:38:44.459Z,3.60
2019-05-05T00:41:14.786Z,3.60
2019-05-05T00:43:45.211Z,3.60
2019-05-05T00:46:24.538Z,3.60
2019-05-05T00:48:55.047Z,3.50
2019-05-05T00:51:24.552Z,3.50
2019-05-05T00:53:55.470Z,3.50
2019-05-05T00:56:25.256Z,3.50
2019-05-05T00:58:58.950Z,3.50
2019-05-05T01:01:42.203Z,3.50
2019-05-05T01:04:14.545Z,3.40
2019-05-05T01:06:45.049Z,3.40
2019-05-05T01:09:18.688Z,3.40
2019-05-05T01:11:47.982Z,3.40
2019-05-05T01:14:17.252Z,3.40
2019-05-05T01:16:46.528Z,3.40
2019-05-05T01:19:15.758Z,3.40
2019-05-05T01:21:45.495Z,3.30
2019-05-05T01:24:14.840Z,3.30
2019-05-05T01:26:44.671Z,3.30
2019-05-05T01:29:14.955Z,3.30
2019-05-05T01:31:45.190Z,3.30
2019-05-05T01:34:37.424Z,3.30
2019-05-05T01:37:16.674Z,3.20
2019-05-05T01:40:14.290Z,3.20
2019-05-05T01:42:44.688Z,3.20
2019-05-05T01:45:14.990Z,3.20
2019-05-05T01:47:45.310Z,3.20
2019-05-05T01:50:20.735Z,3.20
2019-05-05T01:52:45.728Z,3.20
2019-05-05T01:55:15.034Z,3.10
2019-05-05T01:57:45.115Z,3.20
2019-05-05T02:00:14.945Z,3.10
2019-05-05T02:02:45.006Z,3.10
2019-05-05T02:05:14.844Z,3.10
2019-05-05T02:07:44.837Z,3.10
2019-05-05T02:10:15.358Z,3.10
2019-05-05T02:12:45.138Z,3.10
2019-05-05T02:15:15.078Z,3.10
2019-05-05T02:17:44.922Z,3.00
2019-05-05T02:20:40.375Z,3.00
2019-05-05T02:23:11.056Z,2.90
2019-05-05T02:25:40.565Z,3.00
2019-05-05T02:28:09.944Z,3.00
2019-05-05T02:30:49.403Z,3.00
2019-05-05T02:33:18.965Z,3.00
2019-05-05T02:35:48.446Z,3.10
2019-05-05T02:38:18.618Z,3.10
2019-05-05T02:40:49.610Z,3.10
2019-05-05T02:43:21.309Z,3.10
2019-05-05T02:46:18.664Z,3.20
2019-05-05T02:48:51.225Z,3.20
2019-05-05T02:51:25.491Z,3.20
2019-05-05T02:53:55.224Z,3.30
2019-05-05T02:56:28.859Z,3.30
2019-05-05T02:59:04.205Z,3.30
2019-05-05T03:01:37.984Z,3.30
2019-05-05T03:04:09.029Z,3.40
2019-05-05T03:06:43.611Z,3.40
2019-05-05T03:09:13.856Z,3.50
2019-05-05T03:11:46.168Z,3.40
2019-05-05T03:14:17.259Z,3.40
2019-05-05T03:16:46.540Z,3.40
2019-05-05T03:19:16.262Z,3.40
2019-05-05T03:21:46.052Z,3.40
2019-05-05T03:24:15.680Z,3.40
2019-05-05T03:26:44.935Z,3.40
2019-05-05T03:29:18.265Z,3.40
2019-05-05T03:31:48.779Z,3.30
2019-05-05T03:34:19.918Z,3.30
2019-05-05T03:36:49.787Z,3.30
2019-05-05T03:39:26.673Z,3.20
2019-05-05T03:42:24.366Z,3.20
2019-05-05T03:45:15.617Z,3.20
2019-05-05T03:47:45.219Z,3.20
2019-05-05T03:50:14.677Z,3.20
2019-05-05T03:52:45.191Z,3.30
2019-05-05T03:55:14.547Z,3.20
2019-05-05T03:57:44.627Z,3.30
2019-05-05T04:00:16.006Z,3.30
2019-05-05T04:02:50.473Z,3.40
2019-05-05T04:05:34.040Z,3.40
2019-05-05T04:08:03.976Z,3.50
2019-05-05T04:10:33.534Z,3.50
2019-05-05T04:13:04.683Z,3.50
2019-05-05T04:15:34.564Z,3.50
2019-05-05T04:18:25.666Z,3.50
2019-05-05T04:20:54.973Z,3.50
2019-05-05T04:23:25.069Z,3.50
2019-05-05T04:25:54.478Z,3.60
2019-05-05T04:28:24.202Z,3.60
2019-05-05T04:30:53.724Z,3.60
2019-05-05T04:33:23.648Z,3.60
2019-05-05T04:35:54.556Z,3.60
2019-05-05T04:38:24.377Z,3.60
2019-05-05T04:40:54.226Z,3.60
2019-05-05T04:43:24.607Z,3.70
2019-05-05T04:45:54.513Z,3.70
2019-05-05T04:48:29.452Z,3.80
2019-05-05T04:51:44.785Z,3.80
2019-05-05T04:54:33.445Z,3.80
2019-05-05T04:57:04.547Z,3.80
2019-05-05T04:59:34.079Z,3.80
2019-05-05T05:02:08.453Z,3.90
2019-05-05T05:04:53.513Z,3.80
2019-05-05T05:07:24.137Z,3.70
2019-05-05T05:09:54.077Z,3.80
2019-05-05T05:12:23.866Z,3.80
2019-05-05T05:14:54.630Z,3.90
2019-05-05T05:17:31.385Z,3.90
2019-05-05T05:20:00.755Z,4.00
2019-05-05T05:22:30.101Z,4.00
2019-05-05T05:24:59.507Z,4.00
2019-05-05T05:27:28.897Z,4.10
2019-05-05T05:29:58.164Z,4.10
2019-05-05T05:32:27.754Z,4.20
2019-05-05T05:34:57.435Z,4.30
2019-05-05T05:37:26.716Z,4.30
2019-05-05T05:40:09.476Z,4.30
2019-05-05T05:42:38.761Z,4.40
2019-05-05T05:45:39.356Z,4.50
2019-05-05T05:48:31.346Z,4.40
2019-05-05T05:51:06.526Z,4.40
2019-05-05T05:53:35.840Z,4.40
2019-05-05T05:56:05.133Z,4.50
2019-05-05T05:58:34.429Z,4.60
2019-05-05T06:01:04.347Z,4.70
2019-05-05T06:03:34.061Z,4.70
2019-05-05T06:06:04.696Z,4.80
2019-05-05T06:08:34.764Z,4.80
2019-05-05T06:11:04.556Z,4.90
2019-05-05T06:13:34.283Z,5.00
2019-05-05T06:16:04.203Z,5.10
2019-05-05T06:18:34.551Z,5.10
2019-05-05T06:21:04.627Z,5.10
2019-05-05T06:23:34.519Z,5.20
2019-05-05T06:26:06.984Z,5.50
2019-05-05T06:28:35.033Z,5.80
2019-05-05T06:31:04.878Z,6.00
2019-05-05T06:33:34.839Z,6.00
2019-05-05T06:36:04.293Z,6.00
2019-05-05T06:38:34.514Z,6.00
2019-05-05T06:41:14.534Z,6.00
2019-05-05T06:43:59.732Z,6.20
2019-05-05T06:46:31.363Z,6.30
2019-05-05T06:49:00.658Z,6.40
2019-05-05T06:51:30.079Z,6.50
2019-05-05T06:53:59.371Z,6.60
2019-05-05T06:56:28.665Z,6.50
2019-05-05T06:58:58.049Z,6.50
2019-05-05T07:01:27.329Z,6.50
2019-05-05T07:03:56.631Z,6.40
2019-05-05T07:06:25.892Z,6.50
2019-05-05T07:08:55.232Z,6.50
2019-05-05T07:11:24.579Z,6.40
2019-05-05T07:13:54.009Z,6.50
2019-05-05T07:16:24.393Z,6.50
2019-05-05T07:18:54.074Z,6.50
2019-05-05T07:21:23.860Z,6.40
2019-05-05T07:23:53.998Z,6.30
2019-05-05T07:26:23.866Z,6.40
2019-05-05T07:28:54.143Z,6.50
2019-05-05T07:31:23.981Z,6.70
2019-05-05T07:33:54.431Z,6.90
2019-05-05T07:36:44.289Z,7.30
2019-05-05T07:39:14.378Z,7.60
2019-05-05T07:41:44.699Z,7.80
2019-05-05T07:44:25.810Z,8.00
2019-05-05T07:46:45.316Z,8.30
2019-05-05T07:49:14.816Z,8.40
2019-05-05T07:51:44.422Z,8.50
2019-05-05T07:54:14.499Z,8.40
2019-05-05T07:56:44.518Z,8.30
2019-05-05T07:59:14.732Z,8.10
2019-05-05T08:01:46.550Z,8.00
2019-05-05T08:04:15.200Z,7.90
2019-05-05T08:06:44.648Z,7.80
2019-05-05T08:09:14.593Z,7.80
2019-05-05T08:11:44.240Z,7.80
2019-05-05T08:14:14.566Z,7.80
2019-05-05T08:17:15.392Z,7.80
2019-05-05T08:19:51.475Z,7.80
2019-05-05T08:22:20.831Z,8.00
2019-05-05T08:25:00.759Z,8.10
2019-05-05T08:27:37.684Z,8.00
2019-05-05T08:30:16.541Z,8.20
2019-05-05T08:32:46.133Z,8.20
2019-05-05T08:35:15.405Z,8.30
2019-05-05T08:37:44.677Z,8.40
2019-05-05T08:40:14.776Z,8.50
2019-05-05T08:42:44.612Z,8.60
2019-05-05T08:45:14.208Z,8.70
2019-05-05T08:47:43.633Z,8.90
2019-05-05T08:50:13.800Z,9.00
2019-05-05T08:52:44.468Z,9.10
2019-05-05T08:55:14.063Z,9.10
2019-05-05T08:57:44.638Z,9.10
2019-05-05T09:00:14.434Z,9.10
2019-05-05T09:02:43.875Z,9.10
2019-05-05T09:05:14.441Z,9.10
2019-05-05T09:07:44.205Z,9.10
2019-05-05T09:10:14.333Z,9.10
2019-05-05T09:12:43.787Z,9.40
2019-05-05T09:15:13.759Z,9.40
2019-05-05T09:17:44.054Z,9.30
2019-05-05T09:20:14.003Z,9.30
2019-05-05T09:22:44.615Z,9.50
2019-05-05T09:25:23.578Z,9.50
2019-05-05T09:28:02.818Z,9.50
2019-05-05T09:30:40.709Z,9.50
2019-05-05T09:33:10.412Z,9.70
2019-05-05T09:35:39.684Z,9.90
2019-05-05T09:38:09.285Z,9.90
2019-05-05T09:40:40.711Z,9.90
2019-05-05T09:43:10.383Z,9.80
2019-05-05T09:46:09.857Z,9.90
2019-05-05T09:48:40.467Z,10.00
2019-05-05T09:51:09.869Z,10.10
2019-05-05T09:53:39.261Z,10.20
2019-05-05T09:56:08.563Z,10.30
2019-05-05T09:58:37.895Z,10.30
2019-05-05T10:01:07.696Z,10.20
2019-05-05T10:03:37.069Z,10.00
2019-05-05T10:06:06.382Z,9.90
2019-05-05T10:08:35.995Z,9.90
2019-05-05T10:11:05.520Z,9.80
2019-05-05T10:13:35.926Z,9.80
2019-05-05T10:16:05.676Z,9.90
2019-05-05T10:18:36.017Z,9.90
2019-05-05T10:21:05.550Z,9.80
2019-05-05T10:23:37.971Z,9.80
2019-05-05T10:26:10.113Z,9.90
2019-05-05T10:28:39.446Z,9.70
2019-05-05T10:31:08.801Z,9.80
2019-05-05T10:33:41.315Z,9.80
2019-05-05T10:36:10.645Z,9.80
2019-05-05T10:38:41.993Z,9.50
2019-05-05T10:41:13.432Z,9.30
2019-05-05T10:43:43.704Z,9.10
2019-05-05T10:46:14.380Z,9.00
2019-05-05T10:48:44.588Z,8.90
2019-05-05T10:51:14.191Z,8.70
2019-05-05T10:53:43.945Z,8.60
2019-05-05T10:56:13.764Z,8.40
2019-05-05T10:58:44.120Z,8.40
2019-05-05T11:01:14.550Z,8.60
2019-05-05T11:03:44.846Z,8.50
2019-05-05T11:06:14.217Z,8.60
2019-05-05T11:08:45.131Z,8.70
2019-05-05T11:11:15.045Z,9.10
2019-05-05T11:13:46.832Z,9.40
2019-05-05T11:16:16.132Z,9.60
2019-05-05T11:18:45.429Z,9.90
2019-05-05T11:21:14.797Z,9.80
2019-05-05T11:23:44.879Z,9.80
2019-05-05T11:26:14.525Z,9.90
2019-05-05T11:28:44.521Z,10.00
2019-05-05T11:31:14.085Z,10.00
2019-05-05T11:34:13.856Z,10.00
2019-05-05T11:36:58.005Z,10.00
2019-05-05T11:39:27.328Z,9.80
2019-05-05T11:41:56.647Z,9.30
2019-05-05T11:44:26.365Z,8.80
2019-05-05T11:46:55.680Z,8.50
2019-05-05T11:49:25.096Z,8.20
2019-05-05T11:51:56.695Z,7.90
2019-05-05T11:54:26.061Z,7.60
2019-05-05T11:56:55.377Z,7.50
2019-05-05T11:59:24.706Z,7.50
2019-05-05T12:01:54.891Z,7.50
2019-05-05T12:04:24.656Z,7.40
2019-05-05T12:06:54.245Z,7.20
2019-05-05T12:09:48.310Z,7.10
2019-05-05T12:12:18.017Z,7.30
2019-05-05T12:14:47.743Z,7.50
2019-05-05T12:17:34.305Z,7.80
2019-05-05T12:20:16.385Z,8.10
2019-05-05T12:22:46.041Z,8.30
2019-05-05T12:25:32.910Z,8.50
2019-05-05T12:28:06.830Z,8.60
2019-05-05T12:30:36.109Z,8.60
2019-05-05T12:33:05.448Z,8.70
2019-05-05T12:35:35.064Z,8.70
2019-05-05T12:38:04.396Z,8.80
2019-05-05T12:40:33.754Z,8.90
2019-05-05T12:43:03.647Z,9.10
2019-05-05T12:45:34.674Z,9.30
2019-05-05T12:48:17.646Z,9.50
2019-05-05T12:50:47.060Z,9.60
2019-05-05T12:53:16.435Z,9.70
2019-05-05T12:55:45.747Z,9.80
2019-05-05T12:58:15.073Z,10.00
2019-05-05T13:00:49.129Z,10.20
2019-05-05T13:03:18.479Z,10.30
2019-05-05T13:05:47.795Z,10.30
2019-05-05T13:08:17.178Z,10.30
2019-05-05T13:10:46.557Z,10.40
2019-05-05T13:13:15.913Z,10.40
2019-05-05T13:15:45.269Z,10.50
2019-05-05T13:18:14.668Z,10.70
2019-05-05T13:20:53.724Z,10.70
2019-05-05T13:23:34.160Z,10.80
2019-05-05T13:26:34.785Z,10.70
2019-05-05T13:29:04.696Z,10.60
2019-05-05T13:31:34.113Z,10.20
2019-05-05T13:34:04.395Z,10.10
2019-05-05T13:36:33.894Z,10.00
2019-05-05T13:39:04.860Z,9.90
2019-05-05T13:41:34.099Z,10.00
2019-05-05T13:44:05.358Z,10.00
2019-05-05T13:46:35.879Z,10.00
2019-05-05T13:49:30.195Z,10.20
2019-05-05T13:52:04.486Z,10.30
2019-05-05T13:54:33.678Z,10.50
2019-05-05T13:57:03.825Z,10.70
2019-05-05T13:59:34.091Z,11.00
2019-05-05T14:02:03.602Z,11.10
2019-05-05T14:04:34.403Z,11.30
2019-05-05T14:07:04.111Z,11.40
2019-05-05T14:09:33.678Z,11.30
2019-05-05T14:12:04.091Z,11.20
2019-05-05T14:14:33.687Z,11.00
2019-05-05T14:17:04.113Z,10.90
2019-05-05T14:19:34.111Z,10.80
2019-05-05T14:22:04.450Z,10.70
2019-05-05T14:24:51.363Z,10.60
2019-05-05T14:27:23.788Z,10.20
2019-05-05T14:29:58.388Z,9.60
2019-05-05T14:32:38.694Z,9.20
2019-05-05T14:35:34.231Z,8.60
2019-05-05T14:38:06.820Z,8.30
2019-05-05T14:40:36.576Z,8.00
2019-05-05T14:43:05.884Z,7.90
2019-05-05T14:45:35.230Z,7.80
2019-05-05T14:48:04.596Z,7.80
2019-05-05T14:50:34.726Z,7.70
2019-05-05T14:53:04.249Z,7.70
2019-05-05T14:55:34.019Z,7.60
2019-05-05T14:58:04.002Z,7.50
2019-05-05T15:00:33.791Z,7.60
2019-05-05T15:03:03.660Z,7.60
2019-05-05T15:05:47.504Z,7.80
2019-05-05T15:08:35.537Z,7.90
2019-05-05T15:11:11.205Z,8.10
2019-05-05T15:13:40.509Z,8.20
2019-05-05T15:16:10.213Z,8.30
2019-05-05T15:18:40.492Z,8.30
2019-05-05T15:21:09.816Z,8.40
2019-05-05T15:23:39.084Z,8.50
2019-05-05T15:26:08.432Z,8.60
2019-05-05T15:28:37.788Z,8.80
2019-05-05T15:31:07.090Z,8.80
2019-05-05T15:33:44.125Z,8.80
2019-05-05T15:36:15.487Z,8.90
2019-05-05T15:38:44.629Z,9.10
2019-05-05T15:41:14.578Z,9.20
2019-05-05T15:43:44.169Z,9.20
2019-05-05T15:46:15.217Z,9.30
2019-05-05T15:48:44.677Z,9.40
2019-05-05T15:51:14.502Z,9.40
2019-05-05T15:53:44.013Z,9.40
2019-05-05T15:56:13.880Z,9.50
2019-05-05T15:58:43.577Z,9.60
2019-05-05T16:01:14.285Z,9.70
2019-05-05T16:03:44.036Z,9.80
2019-05-05T16:06:14.332Z,9.90
2019-05-05T16:08:45.697Z,9.90
2019-05-05T16:11:20.905Z,10.00
2019-05-05T16:13:54.476Z,10.00
2019-05-05T16:16:34.303Z,10.10
2019-05-05T16:19:28.757Z,10.10
2019-05-05T16:22:03.949Z,10.00
2019-05-05T16:24:36.481Z,10.00
2019-05-05T16:27:18.650Z,10.10
2019-05-05T16:29:39.288Z,10.20
2019-05-05T16:32:21.218Z,10.20
2019-05-05T16:34:43.955Z,10.40
2019-05-05T16:37:14.390Z,10.30
2019-05-05T16:39:47.333Z,10.30
2019-05-05T16:42:18.145Z,10.40
2019-05-05T16:44:53.926Z,10.40
2019-05-05T16:47:25.356Z,10.40
2019-05-05T16:49:55.549Z,10.40
2019-05-05T16:52:31.045Z,10.50
2019-05-05T16:55:05.519Z,10.30
2019-05-05T16:57:36.720Z,10.20
2019-05-05T17:00:06.797Z,10.00
2019-05-05T17:02:36.463Z,9.90
2019-05-05T17:05:06.214Z,9.70
2019-05-05T17:07:35.643Z,9.50
2019-05-05T17:10:06.348Z,9.60
2019-05-05T17:12:35.999Z,9.50
2019-05-05T17:15:23.769Z,9.40
2019-05-05T17:18:04.681Z,9.40
2019-05-05T17:20:40.693Z,9.20
2019-05-05T17:23:12.234Z,8.90
2019-05-05T17:25:43.797Z,8.90
2019-05-05T17:28:13.654Z,8.80
2019-05-05T17:30:43.640Z,8.80
2019-05-05T17:33:14.474Z,8.90
2019-05-05T17:35:43.810Z,8.90
2019-05-05T17:38:15.507Z,8.80
2019-05-05T17:41:04.352Z,8.70
2019-05-05T17:44:03.452Z,8.70
2019-05-05T17:46:57.963Z,8.70
2019-05-05T17:49:39.413Z,8.70
2019-05-05T17:52:28.268Z,8.70
2019-05-05T17:55:01.639Z,8.60
2019-05-05T17:57:34.411Z,8.50
2019-05-05T18:00:04.958Z,8.60
2019-05-05T18:02:34.787Z,8.50
2019-05-05T18:05:04.566Z,8.50
2019-05-05T18:07:38.020Z,8.50
2019-05-05T18:10:34.392Z,8.60
2019-05-05T18:13:15.993Z,8.70
2019-05-05T18:15:57.421Z,8.60
2019-05-05T18:18:27.445Z,8.60
2019-05-05T18:21:01.089Z,8.50
2019-05-05T18:23:36.838Z,8.60
2019-05-05T18:26:11.320Z,8.30
2019-05-05T18:28:40.925Z,8.20
2019-05-05T18:31:29.256Z,8.00
2019-05-05T18:33:58.582Z,7.90
2019-05-05T18:36:27.892Z,7.90
2019-05-05T18:38:57.551Z,8.00
2019-05-05T18:41:35.795Z,7.90
2019-05-05T18:44:13.302Z,7.90
2019-05-05T18:46:43.591Z,7.80
2019-05-05T18:49:13.886Z,7.90
2019-05-05T18:51:43.936Z,8.00
2019-05-05T18:54:13.662Z,8.00
2019-05-05T18:56:43.995Z,7.90
2019-05-05T18:59:13.533Z,7.90
2019-05-05T19:01:52.260Z,8.00
2019-05-05T19:04:38.756Z,7.90
2019-05-05T19:07:27.273Z,7.90
2019-05-05T19:09:57.071Z,7.70
2019-05-05T19:12:26.561Z,7.70
2019-05-05T19:14:56.485Z,7.60
2019-05-05T19:17:28.564Z,7.50
2019-05-05T19:20:01.349Z,7.40
2019-05-05T19:22:30.640Z,7.50
2019-05-05T19:25:15.235Z,7.40
2019-05-05T19:27:45.659Z,7.30
2019-05-05T19:30:15.997Z,7.30
2019-05-05T19:32:45.495Z,7.20
2019-05-05T19:35:14.984Z,7.20
2019-05-05T19:37:44.674Z,7.20
2019-05-05T19:40:14.463Z,7.20
2019-05-05T19:42:45.967Z,7.10
2019-05-05T19:45:14.748Z,7.10
2019-05-05T19:47:44.535Z,7.00
2019-05-05T19:50:19.709Z,7.00
2019-05-05T19:52:49.506Z,7.10
2019-05-05T19:55:18.959Z,7.00
2019-05-05T19:57:48.531Z,7.00
2019-05-05T20:00:18.302Z,6.90
2019-05-05T20:03:00.416Z,6.90
2019-05-05T20:05:19.009Z,6.90
2019-05-05T20:07:48.612Z,6.90
2019-05-05T20:10:17.921Z,6.90
2019-05-05T20:12:47.194Z,6.80
2019-05-05T20:15:23.504Z,6.80
2019-05-05T20:17:53.902Z,6.80
2019-05-05T20:20:23.882Z,6.70
2019-05-05T20:22:54.762Z,6.70
2019-05-05T20:25:24.468Z,6.70
2019-05-05T20:27:55.786Z,6.60
2019-05-05T20:30:24.923Z,6.60
2019-05-05T20:33:04.078Z,6.60
2019-05-05T20:35:43.169Z,6.50
2019-05-05T20:38:15.509Z,6.50
2019-05-05T20:40:46.402Z,6.50
2019-05-05T20:43:15.946Z,6.40
2019-05-05T20:45:46.849Z,6.40
2019-05-05T20:48:16.410Z,6.30
2019-05-05T20:50:45.811Z,6.40
2019-05-05T20:53:15.117Z,6.30
2019-05-05T20:55:44.842Z,6.30
2019-05-05T20:58:14.257Z,6.40
2019-05-05T21:00:44.252Z,6.30
2019-05-05T21:03:14.266Z,6.30
2019-05-05T21:05:44.202Z,6.30
2019-05-05T21:08:14.161Z,6.30
2019-05-05T21:10:44.227Z,6.30
2019-05-05T21:13:14.393Z,6.30
2019-05-05T21:15:44.996Z,6.30
2019-05-05T21:18:14.566Z,6.30
2019-05-05T21:20:43.936Z,6.20
2019-05-05T21:23:35.255Z,6.20
2019-05-05T21:26:07.810Z,6.10
2019-05-05T21:28:37.507Z,6.00
2019-05-05T21:31:06.816Z,6.00
2019-05-05T21:33:36.100Z,6.00
2019-05-05T21:36:05.476Z,6.00
2019-05-05T21:38:35.622Z,6.00
2019-05-05T21:41:04.969Z,6.00
2019-05-05T21:43:34.349Z,5.90
2019-05-05T21:46:04.453Z,5.90
2019-05-05T21:48:34.168Z,5.90
2019-05-05T21:51:10.288Z,5.90
2019-05-05T21:53:47.997Z,5.80
2019-05-05T21:56:39.007Z,5.80
2019-05-05T21:59:08.617Z,5.80
2019-05-05T22:01:40.617Z,5.70
2019-05-05T22:04:12.512Z,5.80
2019-05-05T22:06:40.962Z,5.80
2019-05-05T22:09:10.540Z,5.80
2019-05-05T22:11:39.849Z,5.70
2019-05-05T22:14:09.121Z,5.60
2019-05-05T22:16:38.436Z,5.60
2019-05-05T22:19:08.756Z,5.50
2019-05-05T22:21:43.756Z,5.50
2019-05-05T22:24:15.969Z,5.40
2019-05-05T22:26:45.961Z,5.50
2019-05-05T22:29:17.123Z,5.40
2019-05-05T22:31:46.448Z,5.40
2019-05-05T22:34:16.058Z,5.40
2019-05-05T22:36:45.424Z,5.40
2019-05-05T22:39:17.046Z,5.50
2019-05-05T22:41:49.437Z,5.40
2019-05-05T22:44:18.740Z,5.40
2019-05-05T22:46:47.990Z,5.40
2019-05-05T22:49:17.320Z,5.40
2019-05-05T22:51:46.628Z,5.40
2019-05-05T22:54:15.934Z,5.40
2019-05-05T22:56:45.284Z,5.50
2019-05-05T22:59:14.657Z,5.50
2019-05-05T23:01:43.965Z,5.50
2019-05-05T23:04:38.323Z,5.50
2019-05-05T23:07:26.597Z,5.50
2019-05-05T23:09:56.005Z,5.60
2019-05-05T23:12:25.410Z,5.60
2019-05-05T23:14:55.078Z,5.70
2019-05-05T23:17:30.402Z,5.60
2019-05-05T23:20:21.704Z,5.60
2019-05-05T23:22:57.584Z,5.60
2019-05-05T23:25:31.816Z,5.60
2019-05-05T23:28:01.398Z,5.60
2019-05-05T23:30:39.450Z,5.60
2019-05-05T23:33:01.993Z,5.60
2019-05-05T23:35:31.348Z,5.70
2019-05-05T23:38:00.711Z,5.70
2019-05-05T23:40:29.984Z,5.70
2019-05-05T23:42:59.329Z,5.70
2019-05-05T23:45:28.664Z,5.70
2019-05-05T23:47:59.053Z,5.80
2019-05-05T23:50:28.639Z,5.80
2019-05-05T23:52:57.935Z,5.80
2019-05-05T23:55:27.277Z,5.70
2019-05-05T23:57:56.589Z,5.80
